Portada
METAR-TAF:

METAR-TAF

Aeropuertos :

Múrmansk, Rusia

latitud: 68-58N, longitud: 033-03E, altitud: 51 m

Observación

El informe se hizo hace 42 minutos, a las 23:00 UTC
Viento 6 kt del oeste-noroeste
Temperatura 4°C
Humedad 65%
Presión 1000 hPa
Visibilidad 10 km o más
sin nubes por debajo de 1500 m y sin presencia de cumulonimbus.

METAR: ULMM 242300Z 29003MPS CAVOK 04/M02 Q1000 R31/120065 NOSIG RMK QFE743

Hora: 02:42 (23:42 UTC)


TAF: falta

Observaciones y pronósticos meteorológicos de más de 4000 aeropuertos (mensajes METAR y TAF).

Los puntos amarillos y rojos representan las estaciones disponibles.

Ponga el ratón en el punto deseado para ver el nombre de la estación.

Haga clic para ver las observaciones y los pronósticos meteorológicos.

Para cambiar el mapa : haga clic en los botones verdes con una cruz de color negro para hacer un zoom, en el botón verde con un guión para alejar o en las flechas verdes para mapas adyacentes.


METAR-TAF: